Time;durP1;ratioP1;P1;durP2;ratioP2;P2;SDS_P1;SDS_P2;PMS_P1;PMS_P2;Temp;Humidity;BMP_temperature;BMP_pressure;BME280_temperature;BME280_humidity;BME280_pressure;Samples;Min_cycle;Max_cycle;Signal;HPM_P1;HPM_P2
2023/04/03 00:01:18;;;;;;;10.55;6.60;;;1.10;99.90;;;;;;5017906;28;20049;-44
2023/04/03 00:03:46;;;;;;;6.20;5.60;;;1.00;99.90;;;;;;5017068;28;20053;-46
2023/04/03 00:06:14;;;;;;;10.23;6.03;;;0.90;99.90;;;;;;5017586;28;20129;-44
2023/04/03 00:08:41;;;;;;;10.00;7.68;;;0.90;99.90;;;;;;5018578;28;20421;-47
2023/04/03 00:11:10;;;;;;;7.78;6.20;;;0.90;99.90;;;;;;5017673;28;20561;-44
2023/04/03 00:13:39;;;;;;;9.27;7.25;;;1.00;99.90;;;;;;5017644;28;20473;-44
2023/04/03 00:16:08;;;;;;;9.45;6.93;;;1.00;99.90;;;;;;5018000;28;20100;-45
2023/04/03 00:18:36;;;;;;;9.65;6.00;;;1.00;99.90;;;;;;5015866;28;20053;-46
2023/04/03 00:21:04;;;;;;;5.75;4.90;;;1.00;99.90;;;;;;5013082;28;20509;-45
2023/04/03 00:23:32;;;;;;;6.68;6.07;;;1.00;99.90;;;;;;5018874;28;20056;-46
2023/04/03 00:25:59;;;;;;;7.65;6.85;;;1.00;99.90;;;;;;5021143;28;20080;-43
2023/04/03 00:28:27;;;;;;;7.00;6.30;;;1.00;99.90;;;;;;5022380;28;20514;-44
2023/04/03 00:30:55;;;;;;;8.02;6.38;;;1.00;99.90;;;;;;5016379;28;20052;-44
2023/04/03 00:33:24;;;;;;;7.78;6.97;;;1.00;99.90;;;;;;5019036;28;20477;-45
2023/04/03 00:35:52;;;;;;;9.48;7.63;;;1.00;99.90;;;;;;5020025;28;20049;-46
2023/04/03 00:38:20;;;;;;;5.90;5.30;;;1.00;99.90;;;;;;5004234;28;20060;-43
2023/04/03 00:40:48;;;;;;;6.75;6.05;;;1.00;99.90;;;;;;5020924;28;20481;-45
2023/04/03 00:43:20;;;;;;;7.93;6.57;;;1.00;99.90;;;;;;5020626;28;20056;-44
2023/04/03 00:45:50;;;;;;;10.45;7.15;;;1.00;99.90;;;;;;5002963;28;20049;-44
2023/04/03 00:48:40;;;;;;;6.15;5.53;;;1.00;99.90;;;;;;5019826;28;20049;-44
2023/04/03 00:51:12;;;;;;;6.93;5.63;;;1.00;99.90;;;;;;5020064;28;20045;-43
2023/04/03 00:53:53;;;;;;;6.43;5.65;;;1.00;99.90;;;;;;5018888;28;20061;-46
2023/04/03 00:56:23;;;;;;;6.73;6.07;;;1.10;99.90;;;;;;5021108;28;20439;-44
2023/04/03 00:58:56;;;;;;;7.32;6.45;;;1.10;99.90;;;;;;5021066;28;20072;-44
2023/04/03 01:01:25;;;;;;;7.95;7.25;;;1.10;99.90;;;;;;5020696;28;20058;-43
2023/04/03 01:03:53;;;;;;;4.57;4.00;;;1.10;99.90;;;;;;5018951;28;20045;-46
2023/04/03 01:06:31;;;;;;;6.63;5.90;;;1.10;99.90;;;;;;5016275;28;20064;-44
2023/04/03 01:09:05;;;;;;;6.70;5.90;;;1.10;99.90;;;;;;5021450;28;20064;-46
2023/04/03 01:11:33;;;;;;;8.80;7.53;;;1.10;99.90;;;;;;5002255;28;20056;-48
2023/04/03 01:14:02;;;;;;;8.15;6.97;;;1.10;99.90;;;;;;5003094;28;20045;-47
2023/04/03 01:16:31;;;;;;;9.93;7.28;;;1.10;99.90;;;;;;5021421;28;20061;-50
2023/04/03 01:19:01;;;;;;;10.10;6.55;;;1.10;99.90;;;;;;5001351;28;20047;-44
2023/04/03 01:22:04;;;;;;;9.35;6.72;;;1.20;99.90;;;;;;5020584;28;20057;-44
2023/04/03 01:24:38;;;;;;;10.48;7.18;;;1.10;99.90;;;;;;4987412;28;20096;-44
2023/04/03 01:27:10;;;;;;;10.80;6.65;;;1.20;99.90;;;;;;5018779;28;20429;-46
2023/04/03 01:29:38;;;;;;;9.85;6.80;;;1.20;99.90;;;;;;5017179;28;20053;-49
2023/04/03 01:32:06;;;;;;;7.05;5.60;;;1.20;99.90;;;;;;5020843;28;20060;-43
2023/04/03 01:34:34;;;;;;;8.00;7.20;;;1.20;99.90;;;;;;5018720;28;20060;-46
2023/04/03 01:37:01;;;;;;;7.25;6.38;;;1.20;99.90;;;;;;5019881;28;20466;-49
2023/04/03 01:39:29;;;;;;;7.53;6.40;;;1.20;99.90;;;;;;5018577;28;20065;-45
2023/04/03 01:41:58;;;;;;;6.55;5.47;;;1.20;99.90;;;;;;5001245;28;20064;-45
2023/04/03 01:44:30;;;;;;;7.32;6.63;;;1.20;99.90;;;;;;5002301;28;20057;-45
2023/04/03 01:46:58;;;;;;;7.82;6.70;;;1.20;99.90;;;;;;5014785;28;20067;-43
2023/04/03 01:49:28;;;;;;;7.43;6.70;;;1.20;99.90;;;;;;5018108;28;20062;-46
2023/04/03 01:51:56;;;;;;;11.32;7.35;;;1.20;99.90;;;;;;5017249;28;20534;-44
2023/04/03 01:54:24;;;;;;;5.72;5.22;;;1.20;99.90;;;;;;5019292;28;20576;-45
2023/04/03 01:56:52;;;;;;;7.20;5.32;;;1.20;99.90;;;;;;5020290;28;20057;-47
2023/04/03 01:59:21;;;;;;;6.50;5.80;;;1.20;99.90;;;;;;5001842;28;20048;-44
2023/04/03 02:01:51;;;;;;;9.05;7.22;;;1.20;99.90;;;;;;5003734;28;20540;-45
2023/04/03 02:04:19;;;;;;;5.43;4.88;;;1.20;99.90;;;;;;5000661;28;20068;-44
2023/04/03 02:06:47;;;;;;;6.35;5.55;;;1.20;99.90;;;;;;5018049;28;20060;-46
2023/04/03 02:09:14;;;;;;;8.95;6.65;;;1.20;99.90;;;;;;5016103;28;20553;-44
2023/04/03 02:11:42;;;;;;;7.85;5.95;;;1.20;99.90;;;;;;5019664;28;20505;-43
2023/04/03 02:14:10;;;;;;;6.00;4.72;;;1.20;99.90;;;;;;5016573;28;20390;-44
2023/04/03 02:16:38;;;;;;;6.10;5.50;;;1.20;99.90;;;;;;5019989;28;20403;-46
2023/04/03 02:19:06;;;;;;;8.48;5.95;;;1.20;99.90;;;;;;5017447;28;20042;-44
2023/04/03 02:21:33;;;;;;;6.50;5.55;;;1.20;99.90;;;;;;5020413;28;20053;-43
2023/04/03 02:24:01;;;;;;;6.90;5.70;;;1.20;99.90;;;;;;5019296;28;20541;-46
2023/04/03 02:26:28;;;;;;;6.65;6.05;;;1.20;99.90;;;;;;5019543;28;20049;-44
2023/04/03 02:28:56;;;;;;;7.22;6.32;;;1.20;99.90;;;;;;5018412;28;20053;-43
2023/04/03 02:31:23;;;;;;;7.20;5.80;;;1.20;99.90;;;;;;4999857;28;20639;-45
2023/04/03 02:33:52;;;;;;;7.90;7.13;;;1.20;99.90;;;;;;5016267;28;20273;-44
2023/04/03 02:36:20;;;;;;;6.50;5.88;;;1.20;99.90;;;;;;5002475;28;20053;-46
2023/04/03 02:38:53;;;;;;;8.85;5.70;;;1.20;99.90;;;;;;5016237;28;20057;-39
2023/04/03 02:41:20;;;;;;;12.15;7.28;;;1.20;99.90;;;;;;5017231;28;20057;-40
2023/04/03 02:43:50;;;;;;;7.22;5.53;;;1.20;99.90;;;;;;4997317;28;20688;-39
2023/04/03 02:46:17;;;;;;;7.38;6.00;;;1.20;99.90;;;;;;5016917;28;20045;-39
2023/04/03 02:48:45;;;;;;;8.52;5.88;;;1.20;99.90;;;;;;5018020;28;20053;-39
2023/04/03 02:51:13;;;;;;;5.45;4.57;;;1.20;99.90;;;;;;5000276;28;20057;-40
2023/04/03 02:53:40;;;;;;;12.18;6.45;;;1.20;99.90;;;;;;5018418;28;20057;-42
2023/04/03 02:56:13;;;;;;;6.68;5.85;;;1.20;99.90;;;;;;5001794;28;20057;-39
2023/04/03 02:58:41;;;;;;;7.07;6.38;;;1.30;99.90;;;;;;5019383;28;20041;-40
2023/04/03 03:01:09;;;;;;;5.80;5.20;;;1.20;99.90;;;;;;5000883;28;20060;-38
2023/04/03 03:03:37;;;;;;;4.88;4.38;;;1.20;99.90;;;;;;5000493;28;20041;-39
2023/04/03 03:06:11;;;;;;;8.93;6.05;;;1.20;99.90;;;;;;5001685;28;20084;-40
2023/04/03 03:08:40;;;;;;;6.15;4.82;;;1.20;99.90;;;;;;5019196;28;20060;-39
2023/04/03 03:11:09;;;;;;;13.18;6.18;;;1.20;99.90;;;;;;5001602;28;20057;-41
2023/04/03 03:13:37;;;;;;;7.05;6.32;;;1.20;99.90;;;;;;5018185;28;20057;-40
2023/04/03 03:16:05;;;;;;;6.88;4.10;;;1.20;99.90;;;;;;5018001;28;20386;-40
2023/04/03 03:18:34;;;;;;;6.70;5.20;;;1.20;99.90;;;;;;5018192;28;20513;-40
2023/04/03 03:21:03;;;;;;;7.05;5.38;;;1.20;99.90;;;;;;5018509;28;20050;-41
2023/04/03 03:23:34;;;;;;;6.28;4.97;;;1.20;99.90;;;;;;5004819;28;20049;-42
2023/04/03 03:26:03;;;;;;;;;;;1.20;99.90;;;;;;5024007;28;20058;-40
2023/04/03 03:28:32;;;;;;;7.70;5.43;;;1.20;99.90;;;;;;5023288;28;19932;-39
2023/04/03 03:31:00;;;;;;;5.90;4.78;;;1.20;99.90;;;;;;5021272;28;20585;-41
2023/04/03 03:33:29;;;;;;;7.93;5.85;;;1.20;99.90;;;;;;5004492;28;20425;-39
2023/04/03 03:35:56;;;;;;;7.53;6.25;;;1.20;99.90;;;;;;5021781;28;20827;-39
2023/04/03 03:38:24;;;;;;;6.60;5.30;;;1.20;99.90;;;;;;5022599;28;20076;-39
2023/04/03 03:40:53;;;;;;;7.20;5.05;;;1.20;99.90;;;;;;5022302;28;20076;-39
2023/04/03 03:43:22;;;;;;;8.40;6.93;;;1.20;99.90;;;;;;5019485;28;20053;-41
2023/04/03 03:45:52;;;;;;;6.53;5.93;;;1.20;99.90;;;;;;5020235;28;20057;-39
2023/04/03 03:48:23;;;;;;;7.22;6.00;;;1.30;99.90;;;;;;5016621;28;20084;-39
2023/04/03 03:50:51;;;;;;;7.10;6.32;;;1.30;99.90;;;;;;5017903;28;20072;-40
2023/04/03 03:53:22;;;;;;;6.53;5.90;;;1.30;99.90;;;;;;5006122;28;20370;-39
2023/04/03 03:55:53;;;;;;;9.23;6.60;;;1.30;99.90;;;;;;5004275;28;20068;-39
2023/04/03 03:58:23;;;;;;;8.55;6.00;;;1.30;99.90;;;;;;4985994;28;20045;-40
2023/04/03 04:00:51;;;;;;;7.38;5.82;;;1.20;99.90;;;;;;5011730;28;20508;-39
2023/04/03 04:03:19;;;;;;;9.00;6.10;;;1.20;99.90;;;;;;5025623;28;20064;-40
2023/04/03 04:05:48;;;;;;;6.65;5.95;;;1.30;99.90;;;;;;5022078;28;20057;-40
2023/04/03 04:08:17;;;;;;;6.90;6.20;;;1.20;99.90;;;;;;5026786;28;20053;-39
2023/04/03 04:10:45;;;;;;;6.68;5.43;;;1.20;99.90;;;;;;5024221;28;20046;-39
2023/04/03 04:13:15;;;;;;;5.72;5.22;;;1.20;99.90;;;;;;5008139;28;20057;-40
2023/04/03 04:15:43;;;;;;;6.70;5.15;;;1.20;99.90;;;;;;5019967;28;20045;-40
2023/04/03 04:18:11;;;;;;;6.85;5.45;;;1.20;99.90;;;;;;5020491;28;20053;-38
2023/04/03 04:20:41;;;;;;;6.55;5.90;;;1.20;99.90;;;;;;5017920;28;20057;-42
2023/04/03 04:23:09;;;;;;;7.90;5.78;;;1.20;99.90;;;;;;5022431;28;20486;-39
2023/04/03 04:25:38;;;;;;;7.53;6.68;;;1.20;99.90;;;;;;5019521;28;20061;-39
2023/04/03 04:28:06;;;;;;;8.02;6.13;;;1.20;99.90;;;;;;5012277;28;20065;-40
2023/04/03 04:30:34;;;;;;;5.57;5.00;;;1.20;99.90;;;;;;5001534;28;20068;-41
2023/04/03 04:33:03;;;;;;;6.78;6.10;;;1.20;99.90;;;;;;5004233;28;20227;-39
2023/04/03 04:35:34;;;;;;;7.07;5.95;;;1.20;99.90;;;;;;5009183;28;20050;-40
2023/04/03 04:38:04;;;;;;;6.07;5.47;;;1.20;99.90;;;;;;5019531;28;20046;-39
2023/04/03 04:40:32;;;;;;;6.22;5.60;;;1.20;99.90;;;;;;5019820;28;20295;-39
2023/04/03 04:43:00;;;;;;;6.15;5.20;;;1.20;99.90;;;;;;5021337;28;20432;-43
2023/04/03 04:45:27;;;;;;;7.70;6.05;;;1.20;99.90;;;;;;5017028;28;20060;-40
2023/04/03 04:47:56;;;;;;;7.22;6.05;;;1.20;99.90;;;;;;5021719;28;20084;-39
2023/04/03 04:50:24;;;;;;;7.45;6.10;;;1.20;99.90;;;;;;5017522;28;20060;-39
2023/04/03 04:52:55;;;;;;;6.57;5.95;;;1.20;99.90;;;;;;5003476;28;20053;-39
2023/04/03 04:55:23;;;;;;;9.18;5.88;;;1.20;99.90;;;;;;5021185;28;20434;-39
2023/04/03 04:57:50;;;;;;;6.40;5.65;;;1.20;99.90;;;;;;5015304;28;20061;-39
2023/04/03 05:00:19;;;;;;;9.18;5.72;;;1.20;99.90;;;;;;5000908;28;20057;-39
2023/04/03 05:02:47;;;;;;;4.30;3.80;;;1.20;99.90;;;;;;5019557;28;20049;-41
2023/04/03 05:05:15;;;;;;;11.48;5.93;;;1.20;99.90;;;;;;5003499;28;20049;-41
2023/04/03 05:07:43;;;;;;;7.20;5.05;;;1.20;99.90;;;;;;5021762;28;20041;-39
2023/04/03 05:10:10;;;;;;;9.45;6.22;;;1.20;99.90;;;;;;5016138;28;20041;-39
2023/04/03 05:12:38;;;;;;;4.45;4.05;;;1.20;99.90;;;;;;5021560;28;20514;-39
2023/04/03 05:15:06;;;;;;;5.18;4.68;;;1.20;99.90;;;;;;5020175;28;20053;-42
2023/04/03 05:17:34;;;;;;;6.32;4.38;;;1.10;99.90;;;;;;5017288;28;20049;-40
2023/04/03 05:20:05;;;;;;;4.68;4.10;;;1.10;99.90;;;;;;5012406;28;20064;-39
2023/04/03 05:22:34;;;;;;;5.47;5.03;;;1.20;99.90;;;;;;5003728;28;20049;-40
2023/04/03 05:25:07;;;;;;;6.50;5.70;;;1.20;99.90;;;;;;5003448;28;20054;-40
2023/04/03 05:27:35;;;;;;;5.68;5.18;;;1.20;99.90;;;;;;5019439;28;20045;-40
2023/04/03 05:30:04;;;;;;;6.82;4.90;;;1.20;99.90;;;;;;5021130;28;20529;-40
2023/04/03 05:32:33;;;;;;;6.72;6.20;;;1.10;99.90;;;;;;5005290;28;20053;-39
2023/04/03 05:35:12;;;;;;;5.20;4.68;;;1.20;99.90;;;;;;5018164;28;20049;-39
2023/04/03 05:37:40;;;;;;;5.35;4.85;;;1.20;99.90;;;;;;5021634;28;20619;-39
2023/04/03 05:40:09;;;;;;;5.80;4.60;;;1.20;99.90;;;;;;5020014;28;20049;-40
2023/04/03 05:42:40;;;;;;;4.35;4.00;;;1.20;99.90;;;;;;5004459;28;20505;-40
2023/04/03 05:45:08;;;;;;;5.88;4.35;;;1.20;99.90;;;;;;5022394;28;20061;-40
2023/04/03 05:47:36;;;;;;;6.32;5.25;;;1.20;99.90;;;;;;5005077;28;20049;-39
2023/04/03 05:50:05;;;;;;;6.20;5.28;;;1.20;99.90;;;;;;5002167;28;20053;-39
2023/04/03 05:52:38;;;;;;;5.88;5.10;;;1.20;99.90;;;;;;5021080;28;20061;-42
2023/04/03 05:55:07;;;;;;;5.70;4.68;;;1.20;99.90;;;;;;5017176;28;20045;-39
2023/04/03 05:57:35;;;;;;;5.75;5.20;;;1.20;99.90;;;;;;5021048;28;20064;-40
2023/04/03 06:00:06;;;;;;;4.88;4.38;;;1.30;99.90;;;;;;5002767;28;20136;-39
2023/04/03 06:02:41;;;;;;;4.43;4.00;;;1.30;99.90;;;;;;5020463;28;20053;-39
2023/04/03 06:05:14;;;;;;;5.47;4.88;;;1.30;99.90;;;;;;5013616;28;20522;-40
2023/04/03 06:07:43;;;;;;;4.78;4.40;;;1.30;99.90;;;;;;5020583;28;20044;-41
2023/04/03 06:10:12;;;;;;;5.93;4.70;;;1.30;99.90;;;;;;5020685;28;20045;-40
2023/04/03 06:12:40;;;;;;;4.38;3.97;;;1.30;99.90;;;;;;5019249;28;20525;-40
2023/04/03 06:15:09;;;;;;;6.20;3.65;;;1.40;99.90;;;;;;5020643;28;20049;-39
2023/04/03 06:17:37;;;;;;;5.70;5.18;;;1.40;99.90;;;;;;5019796;28;20494;-39
2023/04/03 06:20:06;;;;;;;7.68;6.63;;;1.40;99.90;;;;;;5017431;28;20057;-40
2023/04/03 06:22:34;;;;;;;6.50;5.18;;;1.40;99.90;;;;;;5017212;28;20057;-40
2023/04/03 06:25:02;;;;;;;6.50;3.95;;;1.40;99.90;;;;;;5020595;28;20053;-40
2023/04/03 06:27:30;;;;;;;8.48;4.90;;;1.50;99.90;;;;;;5019680;28;20049;-39
2023/04/03 06:29:57;;;;;;;3.80;3.33;;;1.50;99.90;;;;;;5019046;28;20365;-40
2023/04/03 06:32:26;;;;;;;4.53;4.15;;;1.50;99.90;;;;;;5019501;28;20057;-38
2023/04/03 06:34:53;;;;;;;4.20;3.90;;;1.50;99.90;;;;;;5018622;28;20841;-40
2023/04/03 06:37:25;;;;;;;8.55;6.38;;;1.50;99.90;;;;;;5020301;28;20076;-39
2023/04/03 06:39:53;;;;;;;6.05;4.95;;;1.50;99.90;;;;;;5019304;28;20077;-41
2023/04/03 06:42:21;;;;;;;6.72;5.00;;;1.50;99.90;;;;;;5019106;28;20566;-38
2023/04/03 06:44:58;;;;;;;5.13;3.67;;;1.60;99.90;;;;;;5017703;28;20049;-40
2023/04/03 06:47:25;;;;;;;4.60;4.10;;;1.60;99.90;;;;;;5018765;28;20053;-39
2023/04/03 06:49:53;;;;;;;6.85;4.38;;;1.60;99.90;;;;;;5017298;28;20588;-40
2023/04/03 06:52:20;;;;;;;5.03;4.38;;;1.70;99.90;;;;;;5019404;28;20049;-39
2023/04/03 06:54:48;;;;;;;5.18;4.75;;;1.70;99.90;;;;;;5019105;28;20037;-39
2023/04/03 06:57:15;;;;;;;3.88;3.58;;;1.70;99.90;;;;;;5020697;28;20057;-40
2023/04/03 06:59:43;;;;;;;6.78;5.30;;;1.70;99.90;;;;;;5017740;28;20045;-39
2023/04/03 07:02:12;;;;;;;4.47;3.83;;;1.70;99.90;;;;;;5018553;28;20457;-41
2023/04/03 07:04:40;;;;;;;5.63;5.07;;;1.80;99.90;;;;;;5017755;28;20057;-39
2023/04/03 07:07:07;;;;;;;4.70;3.97;;;1.90;99.90;;;;;;5018069;28;20041;-39
2023/04/03 07:09:35;;;;;;;5.55;5.05;;;1.90;99.90;;;;;;5019611;28;20537;-39
2023/04/03 07:12:03;;;;;;;5.13;4.57;;;1.90;99.90;;;;;;5013267;28;20049;-39
2023/04/03 07:14:31;;;;;;;7.13;5.28;;;1.90;99.90;;;;;;5018127;28;20057;-39
2023/04/03 07:16:58;;;;;;;4.95;4.43;;;1.90;99.90;;;;;;5003897;28;20056;-40
2023/04/03 07:19:27;;;;;;;5.53;4.60;;;2.00;99.90;;;;;;5017325;28;20049;-40
2023/04/03 07:21:55;;;;;;;8.30;5.90;;;2.10;99.90;;;;;;5018612;28;20060;-39
2023/04/03 07:24:23;;;;;;;4.10;3.30;;;2.10;99.90;;;;;;5019536;28;20053;-39
2023/04/03 07:26:52;;;;;;;6.70;4.03;;;2.10;99.90;;;;;;5018331;28;20045;-40
2023/04/03 07:29:21;;;;;;;7.05;4.72;;;2.00;99.90;;;;;;5016497;28;20397;-40
2023/04/03 07:31:49;;;;;;;7.53;4.07;;;2.00;99.90;;;;;;5013973;28;20049;-38
2023/04/03 07:34:16;;;;;;;8.43;5.32;;;2.00;99.90;;;;;;5019589;28;20496;-39
2023/04/03 07:36:44;;;;;;;5.47;3.55;;;2.10;99.90;;;;;;5022911;28;20399;-38
2023/04/03 07:39:12;;;;;;;4.18;3.78;;;2.10;99.90;;;;;;5020791;28;20041;-39
2023/04/03 07:41:39;;;;;;;4.35;4.00;;;2.20;99.90;;;;;;5022776;28;20482;-40
2023/04/03 07:44:09;;;;;;;3.65;3.35;;;2.20;99.90;;;;;;5021323;28;20535;-39
2023/04/03 07:46:37;;;;;;;6.97;4.82;;;2.20;99.90;;;;;;5022442;28;20053;-39
2023/04/03 07:49:05;;;;;;;11.02;4.85;;;2.30;99.90;;;;;;5021146;28;20425;-40
2023/04/03 07:51:33;;;;;;;4.18;3.72;;;2.30;99.90;;;;;;5021417;28;20267;-39
2023/04/03 07:54:00;;;;;;;4.57;2.88;;;2.20;99.90;;;;;;5021353;28;20053;-39
2023/04/03 07:56:28;;;;;;;5.75;4.60;;;2.20;99.90;;;;;;5027131;28;20069;-39
2023/04/03 07:58:55;;;;;;;4.65;4.25;;;2.20;99.90;;;;;;5022055;28;20064;-39
2023/04/03 08:01:23;;;;;;;5.00;4.35;;;2.30;99.90;;;;;;5022288;28;20053;-39
2023/04/03 08:03:51;;;;;;;4.60;4.28;;;2.40;99.90;;;;;;5020285;28;20060;-39
2023/04/03 08:06:18;;;;;;;9.27;5.07;;;2.40;99.90;;;;;;5021644;28;20506;-38
2023/04/03 08:08:59;;;;;;;6.35;5.13;;;2.50;99.90;;;;;;5021970;28;20396;-40
2023/04/03 08:11:27;;;;;;;5.47;5.07;;;2.50;99.90;;;;;;5021154;28;20052;-40
2023/04/03 08:13:55;;;;;;;5.45;4.85;;;2.60;99.90;;;;;;5020739;28;20054;-39
2023/04/03 08:16:27;;;;;;;5.20;4.75;;;2.60;99.90;;;;;;5022978;28;20057;-38
2023/04/03 08:18:55;;;;;;;;;;;2.70;99.90;;;;;;5020306;28;20347;-38
2023/04/03 08:21:22;;;;;;;6.72;5.07;;;2.80;99.90;;;;;;5021770;28;19932;-39
2023/04/03 08:23:50;;;;;;;5.80;5.28;;;2.70;99.90;;;;;;5019478;28;20517;-39
2023/04/03 08:26:21;;;;;;;5.95;4.65;;;2.80;99.90;;;;;;5022416;28;20060;-40
2023/04/03 08:28:49;;;;;;;5.78;5.13;;;2.70;99.90;;;;;;5021517;28;20160;-39
2023/04/03 08:31:19;;;;;;;6.07;5.50;;;2.80;99.90;;;;;;5020734;28;20541;-39
2023/04/03 08:33:47;;;;;;;7.82;6.32;;;2.90;99.90;;;;;;5020171;28;20061;-40
2023/04/03 08:36:19;;;;;;;5.88;4.93;;;3.10;99.90;;;;;;5021147;28;20054;-38
2023/04/03 08:38:48;;;;;;;8.02;5.25;;;3.30;99.90;;;;;;5020112;28;20092;-39
2023/04/03 08:41:19;;;;;;;5.78;5.25;;;3.40;99.90;;;;;;5023672;28;20061;-39
2023/04/03 08:44:16;;;;;;;8.40;6.32;;;3.30;99.90;;;;;;5020968;28;20590;-39
2023/04/03 08:47:13;;;;;;;5.90;5.38;;;3.30;99.90;;;;;;5019642;28;20132;-38
2023/04/03 08:49:46;;;;;;;5.13;4.55;;;3.30;99.90;;;;;;5005523;28;20056;-38
2023/04/03 08:52:20;;;;;;;6.53;5.03;;;3.20;99.90;;;;;;5021093;28;20064;-39
2023/04/03 08:55:01;;;;;;;5.97;5.28;;;3.20;99.90;;;;;;5020688;28;20394;-41
2023/04/03 08:57:33;;;;;;;5.83;4.43;;;3.20;99.90;;;;;;5021990;28;20060;-38
2023/04/03 09:00:05;;;;;;;7.68;4.68;;;3.20;99.90;;;;;;5015885;28;20045;-39
2023/04/03 09:02:54;;;;;;;7.70;5.75;;;3.30;99.90;;;;;;5020889;28;20053;-39
2023/04/03 09:05:54;;;;;;;5.07;4.68;;;3.50;99.90;;;;;;5017852;28;20053;-40
2023/04/03 09:08:29;;;;;;;10.43;7.78;;;3.70;99.90;;;;;;4993852;28;20053;-38
2023/04/03 09:11:09;;;;;;;3.15;2.83;;;3.70;99.90;;;;;;5019576;28;20049;-41
2023/04/03 09:14:01;;;;;;;4.57;3.72;;;3.70;99.90;;;;;;5020262;28;20062;-39
2023/04/03 09:16:59;;;;;;;4.10;3.80;;;3.60;99.90;;;;;;5021082;28;20472;-40
2023/04/03 09:19:48;;;;;;;5.32;4.38;;;3.50;99.90;;;;;;5018151;28;20053;-39
2023/04/03 09:22:26;;;;;;;8.55;4.68;;;3.50;99.90;;;;;;5019144;28;20076;-40
2023/04/03 09:25:12;;;;;;;7.15;5.00;;;3.80;99.90;;;;;;5021346;28;20057;-38
2023/04/03 09:27:40;;;;;;;5.70;4.57;;;4.10;99.90;;;;;;5020470;28;20049;-38
2023/04/03 09:30:34;;;;;;;2.85;2.65;;;4.20;99.90;;;;;;5019547;28;20045;-38
2023/04/03 09:33:02;;;;;;;8.27;4.72;;;4.30;99.90;;;;;;5018530;28;20079;-38
2023/04/03 09:35:32;;;;;;;6.93;4.22;;;4.00;99.90;;;;;;5018917;28;20045;-38
2023/04/03 09:38:17;;;;;;;3.97;3.67;;;4.00;99.90;;;;;;5022550;28;20046;-38
2023/04/03 09:40:48;;;;;;;3.17;3.00;;;4.20;99.90;;;;;;5023764;28;20489;-38
2023/04/03 09:43:22;;;;;;;3.00;2.85;;;4.30;99.90;;;;;;5022968;28;20457;-38
2023/04/03 09:45:52;;;;;;;4.63;3.80;;;4.30;99.90;;;;;;5023087;28;20417;-39
2023/04/03 09:48:25;;;;;;;2.85;2.65;;;4.30;99.90;;;;;;5023380;28;20060;-38
2023/04/03 09:50:58;;;;;;;2.97;2.78;;;4.40;99.90;;;;;;5020162;28;20060;-38
2023/04/03 09:53:39;;;;;;;7.43;3.30;;;4.30;99.90;;;;;;5020923;28;20045;-38
2023/04/03 09:56:15;;;;;;;2.87;2.33;;;4.20;99.90;;;;;;5023048;28;20072;-38
2023/04/03 09:58:49;;;;;;;3.67;2.50;;;4.30;99.90;;;;;;5022965;28;20374;-38
2023/04/03 10:01:23;;;;;;;4.57;3.55;;;4.20;99.90;;;;;;5020329;28;20053;-39
2023/04/03 10:04:03;;;;;;;4.05;3.60;;;4.10;99.90;;;;;;5021949;28;20068;-38
2023/04/03 10:06:35;;;;;;;6.57;4.22;;;4.20;99.90;;;;;;5023486;28;20049;-38
2023/04/03 10:09:16;;;;;;;4.25;3.85;;;4.00;99.90;;;;;;5023584;28;20081;-38
2023/04/03 10:11:56;;;;;;;4.35;4.05;;;3.60;99.90;;;;;;5022426;28;20083;-38
2023/04/03 10:14:24;;;;;;;6.30;4.60;;;3.10;99.90;;;;;;5021056;28;20076;-38
2023/04/03 10:17:16;;;;;;;7.43;6.15;;;2.80;99.90;;;;;;5006087;28;20079;-39
2023/04/03 10:19:46;;;;;;;;;;;2.70;99.90;;;;;;5016658;28;20049;-42
2023/04/03 10:22:33;;;;;;;6.63;4.18;;;2.60;99.90;;;;;;5022766;28;20289;-39
2023/04/03 10:25:22;;;;;;;7.50;5.38;;;2.60;99.90;;;;;;5017224;28;20065;-40
2023/04/03 10:28:00;;;;;;;4.57;3.58;;;2.50;99.90;;;;;;5016442;28;20045;-38
2023/04/03 10:30:33;;;;;;;5.40;4.95;;;2.40;99.90;;;;;;4999573;28;20049;-39
2023/04/03 10:33:14;;;;;;;6.57;5.45;;;2.30;99.90;;;;;;5019451;28;20072;-38
2023/04/03 10:36:16;;;;;;;6.05;5.53;;;2.40;99.90;;;;;;5017363;28;20053;-38
2023/04/03 10:38:58;;;;;;;5.60;5.05;;;2.50;99.90;;;;;;5015124;28;20053;-39
2023/04/03 10:41:43;;;;;;;5.70;5.18;;;2.70;99.90;;;;;;5014661;28;20056;-39
2023/04/03 10:44:35;;;;;;;5.32;4.60;;;3.00;99.90;;;;;;4990579;28;20053;-38
2023/04/03 10:47:37;;;;;;;5.75;5.25;;;3.10;99.90;;;;;;5018523;28;20049;-39
2023/04/03 10:50:18;;;;;;;5.80;5.30;;;3.10;99.90;;;;;;5016251;28;20053;-41
2023/04/03 10:53:11;;;;;;;5.40;4.70;;;3.10;99.90;;;;;;5018365;28;20057;-39
2023/04/03 10:56:03;;;;;;;4.70;4.22;;;3.20;99.90;;;;;;5019332;28;20126;-39
2023/04/03 10:58:46;;;;;;;4.32;3.95;;;3.30;99.90;;;;;;5006640;28;20057;-39
2023/04/03 11:01:40;;;;;;;5.00;4.57;;;3.30;99.90;;;;;;5015376;28;20057;-42
2023/04/03 11:04:10;;;;;;;5.80;4.35;;;3.40;99.90;;;;;;5017311;28;20064;-39
2023/04/03 11:06:59;;;;;;;7.35;6.05;;;3.50;99.90;;;;;;5000171;28;20308;-39
2023/04/03 11:09:37;;;;;;;3.67;3.28;;;3.40;99.90;;;;;;5018540;28;20057;-38
2023/04/03 11:12:23;;;;;;;2.90;2.70;;;3.30;99.90;;;;;;5017724;28;20437;-40
2023/04/03 11:14:54;;;;;;;9.07;4.22;;;3.20;99.90;;;;;;5013828;28;20049;-39
2023/04/03 11:17:30;;;;;;;4.30;3.67;;;3.00;99.90;;;;;;5019214;28;20045;-39
2023/04/03 11:20:27;;;;;;;4.40;4.00;;;2.70;99.90;;;;;;5013506;28;20049;-40
2023/04/03 11:23:03;;;;;;;4.68;4.38;;;2.60;99.90;;;;;;5017394;28;20053;-39
2023/04/03 11:25:37;;;;;;;5.40;3.85;;;2.60;99.90;;;;;;5019765;28;20057;-39
2023/04/03 11:28:11;;;;;;;4.75;3.22;;;2.70;99.90;;;;;;5017842;28;20050;-39
2023/04/03 11:31:13;;;;;;;4.03;3.70;;;2.70;99.90;;;;;;5013327;28;20069;-40
2023/04/03 11:33:48;;;;;;;4.25;3.85;;;2.70;99.90;;;;;;5013606;28;20057;-39
2023/04/03 11:36:30;;;;;;;3.63;3.33;;;2.70;99.90;;;;;;5017384;28;20061;-43
2023/04/03 11:39:15;;;;;;;4.32;4.03;;;2.60;99.90;;;;;;5017857;28;20064;-38
2023/04/03 11:41:43;;;;;;;5.03;4.50;;;2.70;99.90;;;;;;5015315;28;20058;-39
2023/04/03 11:44:36;;;;;;;5.97;3.50;;;2.80;99.90;;;;;;5019287;28;20357;-40
2023/04/03 11:47:10;;;;;;;12.55;4.47;;;2.80;99.90;;;;;;5017497;28;20576;-39
2023/04/03 11:50:05;;;;;;;6.22;5.20;;;2.90;99.90;;;;;;5016687;28;20135;-39
2023/04/03 11:52:38;;;;;;;5.20;4.15;;;3.20;99.90;;;;;;5016813;28;20065;-39
2023/04/03 11:55:21;;;;;;;3.10;2.80;;;3.50;99.90;;;;;;5013585;28;20045;-39
2023/04/03 11:57:58;;;;;;;5.60;3.60;;;3.70;99.90;;;;;;5017740;28;20050;-39
2023/04/03 12:00:47;;;;;;;8.15;3.58;;;3.50;99.90;;;;;;5018173;28;20080;-39
2023/04/03 12:03:26;;;;;;;4.15;3.75;;;3.70;99.90;;;;;;5018065;28;20050;-37
2023/04/03 12:06:16;;;;;;;5.85;4.90;;;3.90;99.90;;;;;;5011737;28;20524;-39
2023/04/03 12:08:52;;;;;;;3.67;3.15;;;4.20;99.90;;;;;;5018466;28;20057;-41
2023/04/03 12:11:30;;;;;;;3.35;3.08;;;4.40;99.90;;;;;;5017074;28;20053;-39
2023/04/03 12:13:58;;;;;;;2.53;2.38;;;4.30;99.90;;;;;;5014961;28;20049;-38
2023/04/03 12:16:32;;;;;;;2.78;2.03;;;4.00;99.90;;;;;;5018294;28;20057;-41
2023/04/03 12:19:03;;;;;;;2.58;2.38;;;3.90;99.90;;;;;;5013689;28;20068;-38
2023/04/03 12:21:56;;;;;;;3.97;2.63;;;3.90;99.90;;;;;;5021062;28;20600;-42
2023/04/03 12:24:36;;;;;;;1.88;1.77;;;4.00;99.90;;;;;;4988141;28;20425;-39
2023/04/03 12:27:16;;;;;;;2.38;2.28;;;4.00;99.90;;;;;;5021867;28;20049;-38
2023/04/03 12:29:51;;;;;;;6.05;3.55;;;3.90;99.90;;;;;;5018120;28;20577;-38
2023/04/03 12:32:41;;;;;;;2.63;2.42;;;4.00;99.90;;;;;;5021957;28;20068;-39
2023/04/03 12:35:20;;;;;;;4.82;2.63;;;4.20;99.90;;;;;;5019521;28;20045;-39
2023/04/03 12:37:50;;;;;;;3.80;2.38;;;4.40;99.90;;;;;;5021614;28;20488;-39
2023/04/03 12:40:42;;;;;;;2.67;2.47;;;4.50;99.90;;;;;;5022214;28;20058;-36
2023/04/03 12:43:31;;;;;;;;;;;4.70;99.90;;;;;;5019901;28;20053;-39
2023/04/03 12:46:08;;;;;;;3.40;2.85;;;4.90;99.90;;;;;;5022101;28;19975;-37
2023/04/03 12:48:50;;;;;;;3.90;2.45;;;5.20;99.90;;;;;;5021460;28;20498;-38
2023/04/03 12:51:39;;;;;;;3.10;2.42;;;4.90;99.90;;;;;;5017092;28;20413;-38
2023/04/03 12:54:22;;;;;;;3.35;3.05;;;5.10;99.90;;;;;;5020228;28;20489;-38
2023/04/03 12:56:50;;;;;;;5.45;2.03;;;5.50;99.90;;;;;;5021831;28;20571;-38
2023/04/03 12:59:24;;;;;;;2.63;2.42;;;5.60;99.90;;;;;;5019915;28;20048;-38
2023/04/03 13:01:55;;;;;;;2.22;2.03;;;5.60;99.90;;;;;;5020829;28;20072;-38
2023/04/03 13:04:24;;;;;;;2.72;2.53;;;6.00;99.90;;;;;;5018058;28;20049;-38
2023/04/03 13:06:52;;;;;;;3.83;3.13;;;6.30;99.90;;;;;;5020864;28;20056;-38
2023/04/03 13:09:28;;;;;;;3.17;2.88;;;6.10;99.90;;;;;;5020467;28;20058;-38
2023/04/03 13:12:12;;;;;;;3.00;2.75;;;6.00;99.90;;;;;;5017781;28;20050;-38
2023/04/03 13:14:40;;;;;;;4.50;2.65;;;5.90;99.90;;;;;;5019819;28;20519;-38
2023/04/03 13:17:16;;;;;;;2.65;2.38;;;5.40;99.90;;;;;;5022148;28;20418;-39
2023/04/03 13:19:46;;;;;;;4.50;2.47;;;5.00;99.90;;;;;;5018720;28;20041;-38
2023/04/03 13:22:38;;;;;;;3.25;2.83;;;4.90;99.90;;;;;;5020796;28;20049;-38
2023/04/03 13:25:10;;;;;;;11.02;2.42;;;4.90;99.90;;;;;;5019925;28;20057;-40
2023/04/03 13:27:42;;;;;;;4.68;3.97;;;4.90;99.90;;;;;;5020053;28;20045;-38